Crosby Carrier — WDF5669 — position and weather

sailwx.info

Track history (hours):
 
Tides and Currents Weather Stations Pressure Air Temp Water Temp Dewpoint Dewpoint Depression Visibility Wind Speed Wind Dir Waves Ship Positions

Crosby Carrier

Owner: Crosby Marine Transportation LLC, Golden Meadow, LA. More information available from US FCC via Universal Licensing System and Coast Guard Vessel Documentation Center.

Last reported at 2017-Nov-16 03:35 UTC. Time now 2017-Nov-22 11:20 UTC.
Position N 29°32' W 090°51'.

Length 21 m; draft 2.3 m.

Type: Ship. MMSI: 367465960.

Date/timePositionNaut miles runAvg speedWind from/ knotsBaromVisibWave heightAir tempDewpointWater temp
2017-Nov-16 03:35N 29°32' W 090°51'1 8.4
2017-Nov-16 03:30N 29°32' W 090°50'4 8.0
2017-Nov-16 03:00N 29°33' W 090°46'3 5.3
2017-Nov-16 02:30N 29°34' W 090°43'4 8.0
2017-Nov-16 02:00N 29°30' W 090°43'4 8.6
2017-Nov-16 01:30N 29°26' W 090°43'1 0.1
2017-Nov-15 17:09N 29°24' W 090°44'1 5.0
2017-Nov-15 16:58N 29°25' W 090°43'2 4.7
2017-Nov-15 16:30N 29°28' W 090°43'3 5.1
2017-Nov-15 16:00N 29°30' W 090°43'3 5.0
2017-Nov-15 15:30N 29°33' W 090°42'2 3.7
2017-Nov-15 15:00N 29°34' W 090°43'1 3.0
2017-Nov-15 14:30N 29°34' W 090°45'2 4.3
2017-Nov-15 14:00N 29°32' W 090°47'2 4.8
2017-Nov-15 13:30N 29°32' W 090°49'3 4.7
2017-Nov-15 12:49N 29°32' W 090°53'  
2017-Nov-11 01:57N 29°32' W 090°52'4 8.1
2017-Nov-11 01:30N 29°32' W 090°47'3 6.9
2017-Nov-11 01:00N 29°34' W 090°44'1 2.3
2017-Nov-11 00:30N 29°34' W 090°43'1 2.5
2017-Nov-11 00:00N 29°33' W 090°42'0 0.1
2017-Nov-10 23:30N 29°33' W 090°42'0 0.0
2017-Nov-10 23:00N 29°33' W 090°42'0 0.0
2017-Nov-10 22:30N 29°33' W 090°42'0 0.0
2017-Nov-10 22:00N 29°33' W 090°42'0 0.0
2017-Nov-10 21:30N 29°33' W 090°42'0 0.0
2017-Nov-10 21:00N 29°33' W 090°42'0 0.0
2017-Nov-10 20:30N 29°33' W 090°42'0 0.0
2017-Nov-10 20:00N 29°33' W 090°42'0 0.0
2017-Nov-10 19:30N 29°33' W 090°42'0 0.0
2017-Nov-10 19:00N 29°33' W 090°42'0 0.0
2017-Nov-10 18:30N 29°33' W 090°42'0 0.0
2017-Nov-10 18:01N 29°33' W 090°42'0 0.0
2017-Nov-10 17:30N 29°33' W 090°42'0 0.0
2017-Nov-10 17:00N 29°33' W 090°42'0 0.0
2017-Nov-10 16:30N 29°33' W 090°42'0 0.0
2017-Nov-10 16:00N 29°33' W 090°42'0 0.0
2017-Nov-10 15:30N 29°33' W 090°42'0 0.0
2017-Nov-10 15:00N 29°33' W 090°42'0 0.0
2017-Nov-10 14:30N 29°33' W 090°42'0 0.0
2017-Nov-10 14:00N 29°33' W 090°42'0 0.0
2017-Nov-10 13:30N 29°33' W 090°42'0 0.0
2017-Nov-10 13:00N 29°33' W 090°42'0 0.0
2017-Nov-10 12:30N 29°33' W 090°42'0 0.0
2017-Nov-10 12:00N 29°33' W 090°42'0 0.0
2017-Nov-10 10:31N 29°33' W 090°42'0 0.0
2017-Nov-10 10:30N 29°33' W 090°42'0 0.0
2017-Nov-10 10:00N 29°33' W 090°42'0 0.0
2017-Nov-10 09:30N 29°33' W 090°42'0 0.0
2017-Nov-10 09:00N 29°33' W 090°42'0 0.0
2017-Nov-10 08:30N 29°33' W 090°42'0 0.0
2017-Nov-10 08:00N 29°33' W 090°42'0 0.0
2017-Nov-10 07:30N 29°33' W 090°42'0 0.0
2017-Nov-10 07:00N 29°33' W 090°42'0 0.0
2017-Nov-10 06:30N 29°33' W 090°42'0 0.0
2017-Nov-10 06:00N 29°33' W 090°42'0 0.0
2017-Nov-10 05:30N 29°33' W 090°42'0 0.0
2017-Nov-10 05:00N 29°33' W 090°42'0 0.0
2017-Nov-10 04:30N 29°33' W 090°42'0 0.0
2017-Nov-10 04:00N 29°33' W 090°42'0 0.0
2017-Nov-10 03:30N 29°33' W 090°42'0 0.0
2017-Nov-10 03:00N 29°33' W 090°42'0 0.0
2017-Nov-10 02:30N 29°33' W 090°42'0 0.0
2017-Nov-10 02:00N 29°33' W 090°42'0 0.0
2017-Nov-10 01:30N 29°33' W 090°42'0 0.0
2017-Nov-10 01:00N 29°33' W 090°42'0 0.0
2017-Nov-10 00:30N 29°33' W 090°42'0 0.0
2017-Nov-10 00:00N 29°33' W 090°42'0 0.0
2017-Nov-09 23:30N 29°33' W 090°42'0 0.0
2017-Nov-09 23:00N 29°33' W 090°42'0 0.0
2017-Nov-09 22:30N 29°33' W 090°42'0 0.0
2017-Nov-09 22:00N 29°33' W 090°42'0 0.0
2017-Nov-09 21:30N 29°33' W 090°42'0 0.0
2017-Nov-09 21:00N 29°33' W 090°42'0 0.0
2017-Nov-09 20:30N 29°33' W 090°42'0 0.0
2017-Nov-09 20:00N 29°33' W 090°42'0 0.0
2017-Nov-09 19:30N 29°33' W 090°42'0 0.0
2017-Nov-09 19:00N 29°33' W 090°42'0 0.0
2017-Nov-09 18:30N 29°33' W 090°42'0 0.0
2017-Nov-09 18:00N 29°33' W 090°42'0 0.0
2017-Nov-09 17:30N 29°33' W 090°42'0 0.0
2017-Nov-09 17:00N 29°33' W 090°42'0 0.0
2017-Nov-09 16:30N 29°33' W 090°42'0 0.0
2017-Nov-09 16:00N 29°33' W 090°42'0 0.0
2017-Nov-09 15:30N 29°33' W 090°42'0 0.0
2017-Nov-09 15:00N 29°33' W 090°42'0 0.0
2017-Nov-09 14:30N 29°33' W 090°42'0 0.0
2017-Nov-09 13:58N 29°33' W 090°42'0 0.0
2017-Nov-09 13:30N 29°33' W 090°42'0 0.0
2017-Nov-09 13:00N 29°33' W 090°42'0 0.0
2017-Nov-09 12:30N 29°33' W 090°42'0 0.0
2017-Nov-09 12:00N 29°33' W 090°42'0 0.0
2017-Nov-09 11:30N 29°33' W 090°42'0 0.0
2017-Nov-09 11:00N 29°33' W 090°42'0 0.0
2017-Nov-09 10:30N 29°33' W 090°42'0 0.0
2017-Nov-09 10:00N 29°33' W 090°42'0 0.0
2017-Nov-09 09:30N 29°33' W 090°42'0 0.0
2017-Nov-09 09:00N 29°33' W 090°42'0 0.0
2017-Nov-09 08:30N 29°33' W 090°42'0 0.0
2017-Nov-09 08:00N 29°33' W 090°42'0 0.0
2017-Nov-09 07:30N 29°33' W 090°42'0 0.0
2017-Nov-09 07:00N 29°33' W 090°42'0 0.0
2017-Nov-09 06:30N 29°33' W 090°42'0 0.0
2017-Nov-09 06:00N 29°33' W 090°42'0 0.0
2017-Nov-09 05:30N 29°33' W 090°42'0 0.0
2017-Nov-09 05:00N 29°33' W 090°42'0 0.0
2017-Nov-09 04:30N 29°33' W 090°42'0 0.0
2017-Nov-09 04:00N 29°33' W 090°42'0 0.0
2017-Nov-09 03:30N 29°33' W 090°42'0 0.0
2017-Nov-09 03:00N 29°33' W 090°42'0 0.0
2017-Nov-09 02:30N 29°33' W 090°42'0 0.0
2017-Nov-09 02:00N 29°33' W 090°42'0 0.0
2017-Nov-09 01:30N 29°33' W 090°42'0 0.0
2017-Nov-09 01:00N 29°33' W 090°42'0 0.0
2017-Nov-09 00:30N 29°33' W 090°42'0 0.0
2017-Nov-09 00:00N 29°33' W 090°42'0 0.0
2017-Nov-08 23:30N 29°33' W 090°42'0 0.0
2017-Nov-08 23:00N 29°33' W 090°42'0 0.7
2017-Nov-08 22:30N 29°33' W 090°42'2 4.6
2017-Nov-08 22:00N 29°30' W 090°43'3 5.5
2017-Nov-08 21:30N 29°28' W 090°43'3 5.4
2017-Nov-08 20:59N 29°25' W 090°44'0 0.1
2017-Nov-08 14:48N 29°24' W 090°44'2 8.2
2017-Nov-08 14:30N 29°27' W 090°43'4 8.3
2017-Nov-08 14:00N 29°31' W 090°43'2 4.0
2017-Nov-08 13:30N 29°33' W 090°42'0 0.0
2017-Nov-08 13:00N 29°33' W 090°42'0 0.0
2017-Nov-08 12:30N 29°33' W 090°42'0 0.0
2017-Nov-08 12:00N 29°33' W 090°42'0 0.0
2017-Nov-08 11:30N 29°33' W 090°42'0 0.0
2017-Nov-08 11:00N 29°33' W 090°42'0 0.0
2017-Nov-08 10:30N 29°33' W 090°42'0 0.0
2017-Nov-08 10:00N 29°33' W 090°42'0 0.0
2017-Nov-08 09:30N 29°33' W 090°42'0 0.0
2017-Nov-08 09:00N 29°33' W 090°42'0 0.0
2017-Nov-08 08:30N 29°33' W 090°42'0 0.0
2017-Nov-08 08:00N 29°33' W 090°42'0 0.0
2017-Nov-08 07:30N 29°33' W 090°42'0 0.0
2017-Nov-08 07:00N 29°33' W 090°42'0 0.0
2017-Nov-08 06:30N 29°33' W 090°42'0 0.0
2017-Nov-08 06:00N 29°33' W 090°42'0 0.0
2017-Nov-08 05:30N 29°33' W 090°42'0 0.0
2017-Nov-08 05:00N 29°33' W 090°42'0 0.0
2017-Nov-08 04:30N 29°33' W 090°42'0 0.0
2017-Nov-08 04:00N 29°33' W 090°42'0 0.0
2017-Nov-08 03:30N 29°33' W 090°42'0 0.0
2017-Nov-08 03:00N 29°33' W 090°42'0 0.0
2017-Nov-08 02:30N 29°33' W 090°42'0 0.0
2017-Nov-08 02:00N 29°33' W 090°42'0 0.0
2017-Nov-08 01:31N 29°33' W 090°42'0 0.0
2017-Nov-08 01:00N 29°33' W 090°42'0 0.0
2017-Nov-08 00:30N 29°33' W 090°42'0 0.0
2017-Nov-08 00:00N 29°33' W 090°42'0 0.0
2017-Nov-07 23:30N 29°33' W 090°42'0 0.0
2017-Nov-07 23:00N 29°33' W 090°42'0 0.0
2017-Nov-07 22:30N 29°33' W 090°42'0 0.0
2017-Nov-07 22:00N 29°33' W 090°42'0 0.0
2017-Nov-07 21:30N 29°33' W 090°42'0 0.0
2017-Nov-07 21:00N 29°33' W 090°42'0 0.0
2017-Nov-07 20:30N 29°33' W 090°42'0 0.0
2017-Nov-07 20:00N 29°33' W 090°42'0 0.0
2017-Nov-07 19:30N 29°33' W 090°42'0 0.0
2017-Nov-07 19:00N 29°33' W 090°42'0 0.0
2017-Nov-07 18:30N 29°33' W 090°42'0 0.0
2017-Nov-07 18:00N 29°33' W 090°42'0 0.0
2017-Nov-07 17:30N 29°33' W 090°42'0 0.0
2017-Nov-07 17:00N 29°33' W 090°42'0 0.0
2017-Nov-07 16:30N 29°33' W 090°42'0 0.0
2017-Nov-07 16:00N 29°33' W 090°42'0 0.0
2017-Nov-07 15:30N 29°33' W 090°42'0 0.0
2017-Nov-07 15:00N 29°33' W 090°42'0 0.0
2017-Nov-07 14:30N 29°33' W 090°42'0 0.1
2017-Nov-07 14:00N 29°33' W 090°42'1 2.2
2017-Nov-07 13:30N 29°34' W 090°42'0 0.0
2017-Nov-07 13:00N 29°34' W 090°42'0 0.0
2017-Nov-07 12:30N 29°34' W 090°42'0 0.0
2017-Nov-07 12:00N 29°34' W 090°42'0 0.0
2017-Nov-07 11:30N 29°34' W 090°42'0 0.0
2017-Nov-07 11:00N 29°34' W 090°42'0 0.0
2017-Nov-07 10:30N 29°34' W 090°42'0 0.0
2017-Nov-07 10:00N 29°34' W 090°42'0 0.0
2017-Nov-07 09:30N 29°34' W 090°42'0 0.4
2017-Nov-07 09:00N 29°34' W 090°42'1 1.9
2017-Nov-07 08:30N 29°33' W 090°42'0 0.0
2017-Nov-07 08:00N 29°33' W 090°42'0 0.0
2017-Nov-07 07:30N 29°33' W 090°42'0 0.0
2017-Nov-07 07:00N 29°33' W 090°42'0 0.0
2017-Nov-07 06:30N 29°33' W 090°42'0 0.0
2017-Nov-07 06:00N 29°33' W 090°42'0 0.0
2017-Nov-07 05:30N 29°33' W 090°42'0 0.0
2017-Nov-07 05:00N 29°33' W 090°42'0 0.0
2017-Nov-07 04:30N 29°33' W 090°42'0 0.0
2017-Nov-07 04:00N 29°33' W 090°42'0 0.0
2017-Nov-07 03:30N 29°33' W 090°42'0 0.0
2017-Nov-07 03:00N 29°33' W 090°42'0 0.0
2017-Nov-07 02:30N 29°33' W 090°42'0 0.0
2017-Nov-07 02:00N 29°33' W 090°42'0 0.0
2017-Nov-07 01:30N 29°33' W 090°42'0 0.0
2017-Nov-07 01:00N 29°33' W 090°42'0 0.0
2017-Nov-07 00:30N 29°33' W 090°42'0 0.0
2017-Nov-07 00:00N 29°33' W 090°42'0 0.0
2017-Nov-06 23:30N 29°33' W 090°42'0 0.0
2017-Nov-06 23:00N 29°33' W 090°42'0 0.0
2017-Nov-06 22:30N 29°33' W 090°42'0 0.0
2017-Nov-06 22:00N 29°33' W 090°42'0 0.0
2017-Nov-06 21:30N 29°33' W 090°42'0 0.0
2017-Nov-06 21:00N 29°33' W 090°42'0 0.0
2017-Nov-06 20:30N 29°33' W 090°42'  
Track history (hours):
 
Tides and Currents Weather Stations Pressure Air Temp Water Temp Dewpoint Dewpoint Depression Visibility Wind Speed Wind Dir Waves Ship Positions

Crosby Carrier

Owner: Crosby Marine Transportation LLC, Golden Meadow, LA. More information available from US FCC via Universal Licensing System and Coast Guard Vessel Documentation Center.

Last reported at 2017-Nov-16 03:35 UTC. Time now 2017-Nov-22 11:20 UTC.
Position N 29°32' W 090°51'.

Length 21 m; draft 2.3 m.

Type: Ship. MMSI: 367465960.

Date/timePositionNaut miles runAvg speedWind from/ knotsBaromVisibWave heightAir tempDewpointWater temp
2017-Nov-16 03:35N 29°32' W 090°51'1 8.4
2017-Nov-16 03:30N 29°32' W 090°50'4 8.0
2017-Nov-16 03:00N 29°33' W 090°46'3 5.3
2017-Nov-16 02:30N 29°34' W 090°43'4 8.0
2017-Nov-16 02:00N 29°30' W 090°43'4 8.6
2017-Nov-16 01:30N 29°26' W 090°43'1 0.1
2017-Nov-15 17:09N 29°24' W 090°44'1 5.0
2017-Nov-15 16:58N 29°25' W 090°43'2 4.7
2017-Nov-15 16:30N 29°28' W 090°43'3 5.1
2017-Nov-15 16:00N 29°30' W 090°43'3 5.0
2017-Nov-15 15:30N 29°33' W 090°42'2 3.7
2017-Nov-15 15:00N 29°34' W 090°43'1 3.0
2017-Nov-15 14:30N 29°34' W 090°45'2 4.3
2017-Nov-15 14:00N 29°32' W 090°47'2 4.8
2017-Nov-15 13:30N 29°32' W 090°49'3 4.7
2017-Nov-15 12:49N 29°32' W 090°53'  
2017-Nov-11 01:57N 29°32' W 090°52'4 8.1
2017-Nov-11 01:30N 29°32' W 090°47'3 6.9
2017-Nov-11 01:00N 29°34' W 090°44'1 2.3
2017-Nov-11 00:30N 29°34' W 090°43'1 2.5
2017-Nov-11 00:00N 29°33' W 090°42'0 0.1
2017-Nov-10 23:30N 29°33' W 090°42'0 0.0
2017-Nov-10 23:00N 29°33' W 090°42'0 0.0
2017-Nov-10 22:30N 29°33' W 090°42'0 0.0
2017-Nov-10 22:00N 29°33' W 090°42'0 0.0
2017-Nov-10 21:30N 29°33' W 090°42'0 0.0
2017-Nov-10 21:00N 29°33' W 090°42'0 0.0
2017-Nov-10 20:30N 29°33' W 090°42'0 0.0
2017-Nov-10 20:00N 29°33' W 090°42'0 0.0
2017-Nov-10 19:30N 29°33' W 090°42'0 0.0
2017-Nov-10 19:00N 29°33' W 090°42'0 0.0
2017-Nov-10 18:30N 29°33' W 090°42'0 0.0
2017-Nov-10 18:01N 29°33' W 090°42'0 0.0
2017-Nov-10 17:30N 29°33' W 090°42'0 0.0
2017-Nov-10 17:00N 29°33' W 090°42'0 0.0
2017-Nov-10 16:30N 29°33' W 090°42'0 0.0
2017-Nov-10 16:00N 29°33' W 090°42'0 0.0
2017-Nov-10 15:30N 29°33' W 090°42'0 0.0
2017-Nov-10 15:00N 29°33' W 090°42'0 0.0
2017-Nov-10 14:30N 29°33' W 090°42'0 0.0
2017-Nov-10 14:00N 29°33' W 090°42'0 0.0
2017-Nov-10 13:30N 29°33' W 090°42'0 0.0
2017-Nov-10 13:00N 29°33' W 090°42'0 0.0
2017-Nov-10 12:30N 29°33' W 090°42'0 0.0
2017-Nov-10 12:00N 29°33' W 090°42'0 0.0
2017-Nov-10 10:31N 29°33' W 090°42'0 0.0
2017-Nov-10 10:30N 29°33' W 090°42'0 0.0
2017-Nov-10 10:00N 29°33' W 090°42'0 0.0
2017-Nov-10 09:30N 29°33' W 090°42'0 0.0
2017-Nov-10 09:00N 29°33' W 090°42'0 0.0
2017-Nov-10 08:30N 29°33' W 090°42'0 0.0
2017-Nov-10 08:00N 29°33' W 090°42'0 0.0
2017-Nov-10 07:30N 29°33' W 090°42'0 0.0
2017-Nov-10 07:00N 29°33' W 090°42'0 0.0
2017-Nov-10 06:30N 29°33' W 090°42'0 0.0
2017-Nov-10 06:00N 29°33' W 090°42'0 0.0
2017-Nov-10 05:30N 29°33' W 090°42'0 0.0
2017-Nov-10 05:00N 29°33' W 090°42'0 0.0
2017-Nov-10 04:30N 29°33' W 090°42'0 0.0
2017-Nov-10 04:00N 29°33' W 090°42'0 0.0
2017-Nov-10 03:30N 29°33' W 090°42'0 0.0
2017-Nov-10 03:00N 29°33' W 090°42'0 0.0
2017-Nov-10 02:30N 29°33' W 090°42'0 0.0
2017-Nov-10 02:00N 29°33' W 090°42'0 0.0
2017-Nov-10 01:30N 29°33' W 090°42'0 0.0
2017-Nov-10 01:00N 29°33' W 090°42'0 0.0
2017-Nov-10 00:30N 29°33' W 090°42'0 0.0
2017-Nov-10 00:00N 29°33' W 090°42'0 0.0
2017-Nov-09 23:30N 29°33' W 090°42'0 0.0
2017-Nov-09 23:00N 29°33' W 090°42'0 0.0
2017-Nov-09 22:30N 29°33' W 090°42'0 0.0
2017-Nov-09 22:00N 29°33' W 090°42'0 0.0
2017-Nov-09 21:30N 29°33' W 090°42'0 0.0
2017-Nov-09 21:00N 29°33' W 090°42'0 0.0
2017-Nov-09 20:30N 29°33' W 090°42'0 0.0
2017-Nov-09 20:00N 29°33' W 090°42'0 0.0
2017-Nov-09 19:30N 29°33' W 090°42'0 0.0
2017-Nov-09 19:00N 29°33' W 090°42'0 0.0
2017-Nov-09 18:30N 29°33' W 090°42'0 0.0
2017-Nov-09 18:00N 29°33' W 090°42'0 0.0
2017-Nov-09 17:30N 29°33' W 090°42'0 0.0
2017-Nov-09 17:00N 29°33' W 090°42'0 0.0
2017-Nov-09 16:30N 29°33' W 090°42'0 0.0
2017-Nov-09 16:00N 29°33' W 090°42'0 0.0
2017-Nov-09 15:30N 29°33' W 090°42'0 0.0
2017-Nov-09 15:00N 29°33' W 090°42'0 0.0
2017-Nov-09 14:30N 29°33' W 090°42'0 0.0
2017-Nov-09 13:58N 29°33' W 090°42'0 0.0
2017-Nov-09 13:30N 29°33' W 090°42'0 0.0
2017-Nov-09 13:00N 29°33' W 090°42'0 0.0
2017-Nov-09 12:30N 29°33' W 090°42'0 0.0
2017-Nov-09 12:00N 29°33' W 090°42'0 0.0
2017-Nov-09 11:30N 29°33' W 090°42'0 0.0
2017-Nov-09 11:00N 29°33' W 090°42'0 0.0
2017-Nov-09 10:30N 29°33' W 090°42'0 0.0
2017-Nov-09 10:00N 29°33' W 090°42'0 0.0
2017-Nov-09 09:30N 29°33' W 090°42'0 0.0
2017-Nov-09 09:00N 29°33' W 090°42'0 0.0
2017-Nov-09 08:30N 29°33' W 090°42'0 0.0
2017-Nov-09 08:00N 29°33' W 090°42'0 0.0
2017-Nov-09 07:30N 29°33' W 090°42'0 0.0
2017-Nov-09 07:00N 29°33' W 090°42'0 0.0
2017-Nov-09 06:30N 29°33' W 090°42'0 0.0
2017-Nov-09 06:00N 29°33' W 090°42'0 0.0
2017-Nov-09 05:30N 29°33' W 090°42'0 0.0
2017-Nov-09 05:00N 29°33' W 090°42'0 0.0
2017-Nov-09 04:30N 29°33' W 090°42'0 0.0
2017-Nov-09 04:00N 29°33' W 090°42'0 0.0
2017-Nov-09 03:30N 29°33' W 090°42'0 0.0
2017-Nov-09 03:00N 29°33' W 090°42'0 0.0
2017-Nov-09 02:30N 29°33' W 090°42'0 0.0
2017-Nov-09 02:00N 29°33' W 090°42'0 0.0
2017-Nov-09 01:30N 29°33' W 090°42'0 0.0
2017-Nov-09 01:00N 29°33' W 090°42'0 0.0
2017-Nov-09 00:30N 29°33' W 090°42'0 0.0
2017-Nov-09 00:00N 29°33' W 090°42'0 0.0
2017-Nov-08 23:30N 29°33' W 090°42'0 0.0
2017-Nov-08 23:00N 29°33' W 090°42'0 0.7
2017-Nov-08 22:30N 29°33' W 090°42'2 4.6
2017-Nov-08 22:00N 29°30' W 090°43'3 5.5
2017-Nov-08 21:30N 29°28' W 090°43'3 5.4
2017-Nov-08 20:59N 29°25' W 090°44'0 0.1
2017-Nov-08 14:48N 29°24' W 090°44'2 8.2
2017-Nov-08 14:30N 29°27' W 090°43'4 8.3
2017-Nov-08 14:00N 29°31' W 090°43'2 4.0
2017-Nov-08 13:30N 29°33' W 090°42'0 0.0
2017-Nov-08 13:00N 29°33' W 090°42'0 0.0
2017-Nov-08 12:30N 29°33' W 090°42'0 0.0
2017-Nov-08 12:00N 29°33' W 090°42'0 0.0
2017-Nov-08 11:30N 29°33' W 090°42'0 0.0
2017-Nov-08 11:00N 29°33' W 090°42'0 0.0
2017-Nov-08 10:30N 29°33' W 090°42'0 0.0
2017-Nov-08 10:00N 29°33' W 090°42'0 0.0
2017-Nov-08 09:30N 29°33' W 090°42'0 0.0
2017-Nov-08 09:00N 29°33' W 090°42'0 0.0
2017-Nov-08 08:30N 29°33' W 090°42'0 0.0
2017-Nov-08 08:00N 29°33' W 090°42'0 0.0
2017-Nov-08 07:30N 29°33' W 090°42'0 0.0
2017-Nov-08 07:00N 29°33' W 090°42'0 0.0
2017-Nov-08 06:30N 29°33' W 090°42'0 0.0
2017-Nov-08 06:00N 29°33' W 090°42'0 0.0
2017-Nov-08 05:30N 29°33' W 090°42'0 0.0
2017-Nov-08 05:00N 29°33' W 090°42'0 0.0
2017-Nov-08 04:30N 29°33' W 090°42'0 0.0
2017-Nov-08 04:00N 29°33' W 090°42'0 0.0
2017-Nov-08 03:30N 29°33' W 090°42'0 0.0
2017-Nov-08 03:00N 29°33' W 090°42'0 0.0
2017-Nov-08 02:30N 29°33' W 090°42'0 0.0
2017-Nov-08 02:00N 29°33' W 090°42'0 0.0
2017-Nov-08 01:31N 29°33' W 090°42'0 0.0
2017-Nov-08 01:00N 29°33' W 090°42'0 0.0
2017-Nov-08 00:30N 29°33' W 090°42'0 0.0
2017-Nov-08 00:00N 29°33' W 090°42'0 0.0
2017-Nov-07 23:30N 29°33' W 090°42'0 0.0
2017-Nov-07 23:00N 29°33' W 090°42'0 0.0
2017-Nov-07 22:30N 29°33' W 090°42'0 0.0
2017-Nov-07 22:00N 29°33' W 090°42'0 0.0
2017-Nov-07 21:30N 29°33' W 090°42'0 0.0
2017-Nov-07 21:00N 29°33' W 090°42'0 0.0
2017-Nov-07 20:30N 29°33' W 090°42'0 0.0
2017-Nov-07 20:00N 29°33' W 090°42'0 0.0
2017-Nov-07 19:30N 29°33' W 090°42'0 0.0
2017-Nov-07 19:00N 29°33' W 090°42'0 0.0
2017-Nov-07 18:30N 29°33' W 090°42'0 0.0
2017-Nov-07 18:00N 29°33' W 090°42'0 0.0
2017-Nov-07 17:30N 29°33' W 090°42'0 0.0
2017-Nov-07 17:00N 29°33' W 090°42'0 0.0
2017-Nov-07 16:30N 29°33' W 090°42'0 0.0
2017-Nov-07 16:00N 29°33' W 090°42'0 0.0
2017-Nov-07 15:30N 29°33' W 090°42'0 0.0
2017-Nov-07 15:00N 29°33' W 090°42'0 0.0
2017-Nov-07 14:30N 29°33' W 090°42'0 0.1
2017-Nov-07 14:00N 29°33' W 090°42'1 2.2
2017-Nov-07 13:30N 29°34' W 090°42'0 0.0
2017-Nov-07 13:00N 29°34' W 090°42'0 0.0
2017-Nov-07 12:30N 29°34' W 090°42'0 0.0
2017-Nov-07 12:00N 29°34' W 090°42'0 0.0
2017-Nov-07 11:30N 29°34' W 090°42'0 0.0
2017-Nov-07 11:00N 29°34' W 090°42'0 0.0
2017-Nov-07 10:30N 29°34' W 090°42'0 0.0
2017-Nov-07 10:00N 29°34' W 090°42'0 0.0
2017-Nov-07 09:30N 29°34' W 090°42'0 0.4
2017-Nov-07 09:00N 29°34' W 090°42'1 1.9
2017-Nov-07 08:30N 29°33' W 090°42'0 0.0
2017-Nov-07 08:00N 29°33' W 090°42'0 0.0
2017-Nov-07 07:30N 29°33' W 090°42'0 0.0
2017-Nov-07 07:00N 29°33' W 090°42'0 0.0
2017-Nov-07 06:30N 29°33' W 090°42'0 0.0
2017-Nov-07 06:00N 29°33' W 090°42'0 0.0
2017-Nov-07 05:30N 29°33' W 090°42'0 0.0
2017-Nov-07 05:00N 29°33' W 090°42'0 0.0
2017-Nov-07 04:30N 29°33' W 090°42'0 0.0
2017-Nov-07 04:00N 29°33' W 090°42'0 0.0
2017-Nov-07 03:30N 29°33' W 090°42'0 0.0
2017-Nov-07 03:00N 29°33' W 090°42'0 0.0
2017-Nov-07 02:30N 29°33' W 090°42'0 0.0
2017-Nov-07 02:00N 29°33' W 090°42'0 0.0
2017-Nov-07 01:30N 29°33' W 090°42'0 0.0
2017-Nov-07 01:00N 29°33' W 090°42'0 0.0
2017-Nov-07 00:30N 29°33' W 090°42'0 0.0
2017-Nov-07 00:00N 29°33' W 090°42'0 0.0
2017-Nov-06 23:30N 29°33' W 090°42'0 0.0
2017-Nov-06 23:00N 29°33' W 090°42'0 0.0
2017-Nov-06 22:30N 29°33' W 090°42'0 0.0
2017-Nov-06 22:00N 29°33' W 090°42'0 0.0
2017-Nov-06 21:30N 29°33' W 090°42'0 0.0
2017-Nov-06 21:00N 29°33' W 090°42'0 0.0
2017-Nov-06 20:30N 29°33' W 090°42'  

Dump ship's entire track history